Time;durP1;ratioP1;P1;durP2;ratioP2;P2;SDS_P1;SDS_P2;PMS_P1;PMS_P2;Temp;Humidity;BMP_temperature;BMP_pressure;BME280_temperature;BME280_humidity;BME280_pressure;Samples;Min_cycle;Max_cycle;Signal;HPM_P1;HPM_P2
2023/12/09 00:00:22;;;;;;;2.08;1.20;;;;;;;21.11;33.06;100114.16;4587594;27;20115;-57
2023/12/09 00:02:32;;;;;;;1.50;1.17;;;;;;;21.11;32.53;100105.53;4589924;27;20458;-58
2023/12/09 00:04:43;;;;;;;1.38;1.20;;;;;;;21.11;32.58;100111.28;4588401;27;20036;-59
2023/12/09 00:06:53;;;;;;;1.45;1.10;;;;;;;21.12;32.42;100110.06;4588253;27;21102;-57
2023/12/09 00:09:04;;;;;;;1.10;1.00;;;;;;;21.10;32.36;100106.78;4588085;27;20097;-56
2023/12/09 00:11:14;;;;;;;1.50;1.10;;;;;;;21.10;32.54;100105.94;4587085;27;20031;-57
2023/12/09 00:13:24;;;;;;;1.15;1.05;;;;;;;21.07;32.56;100095.22;4587251;27;20035;-56
2023/12/09 00:15:35;;;;;;;1.50;0.90;;;;;;;21.10;32.65;100105.94;4585474;27;23009;-57
2023/12/09 00:17:45;;;;;;;1.10;1.00;;;;;;;21.10;32.87;100106.78;4587517;27;20032;-56
2023/12/09 00:19:56;;;;;;;1.17;1.00;;;;;;;21.10;32.26;100103.06;4572726;27;20048;-57
2023/12/09 00:22:06;;;;;;;1.33;1.00;;;;;;;21.09;32.68;100110.84;4589960;27;20044;-56
2023/12/09 00:24:16;;;;;;;1.65;1.15;;;;;;;21.09;32.28;100105.09;4586216;27;20047;-56
2023/12/09 00:26:27;;;;;;;1.20;1.10;;;;;;;21.09;32.48;100112.88;4591362;27;20040;-57
2023/12/09 00:28:37;;;;;;;1.15;1.05;;;;;;;21.09;32.26;100110.03;4588653;27;20070;-58
2023/12/09 00:30:48;;;;;;;1.20;1.10;;;;;;;21.08;32.04;100108.34;4586267;27;20492;-55
2023/12/09 00:32:58;;;;;;;2.67;1.40;;;;;;;21.09;32.53;100112.88;4588123;27;20569;-55
2023/12/09 00:35:08;;;;;;;1.33;1.20;;;;;;;21.10;32.45;100117.41;4587381;27;20036;-56
2023/12/09 00:37:19;;;;;;;1.67;1.30;;;;;;;21.07;32.54;100107.53;4587898;27;20043;-57
2023/12/09 00:39:29;;;;;;;1.20;1.10;;;;;;;21.09;32.23;100110.84;4588167;27;20453;-56
2023/12/09 00:41:40;;;;;;;1.48;1.27;;;;;;;21.07;32.49;100107.53;4590051;27;20092;-57
2023/12/09 00:43:50;;;;;;;1.35;1.00;;;;;;;21.07;32.19;100107.53;4588276;27;21727;-56
2023/12/09 00:46:00;;;;;;;2.13;1.33;;;;;;;21.07;32.60;100119.00;4588952;27;20048;-57
2023/12/09 00:48:11;;;;;;;1.73;1.08;;;;;;;21.06;32.47;100117.34;4586844;27;20047;-55
2023/12/09 00:50:21;;;;;;;1.52;1.10;;;;;;;21.08;32.30;100119.81;4590088;27;20040;-57
2023/12/09 00:52:32;;;;;;;1.73;1.30;;;;;;;21.06;32.15;100117.34;4586741;27;23827;-57
2023/12/09 00:54:42;;;;;;;2.10;1.30;;;;;;;21.06;32.59;100120.22;4587538;27;20055;-56
2023/12/09 00:56:53;;;;;;;2.22;1.20;;;;;;;21.06;32.26;100119.41;4587781;27;20039;-57
2023/12/09 00:59:03;;;;;;;1.67;1.35;;;;;;;21.07;32.70;100124.75;4585908;27;20468;-57
2023/12/09 01:01:14;;;;;;;1.98;1.20;;;;;;;21.05;32.10;100127.16;4587914;27;20042;-57
2023/12/09 01:03:24;;;;;;;1.80;1.20;;;;;;;21.05;32.27;100138.66;4587432;27;20389;-55
2023/12/09 01:05:34;;;;;;;1.50;1.30;;;;;;;21.06;32.34;100136.63;4571253;27;20107;-56
2023/12/09 01:07:45;;;;;;;1.52;1.27;;;;;;;21.05;32.40;100132.91;4585099;27;27879;-55
2023/12/09 01:09:55;;;;;;;1.55;1.10;;;;;;;21.04;32.44;100136.97;4588248;27;20066;-56
2023/12/09 01:12:06;;;;;;;1.75;1.30;;;;;;;21.04;32.70;100133.28;4587641;27;20036;-57
2023/12/09 01:14:16;;;;;;;1.10;1.00;;;;;;;21.05;32.97;100143.53;4587954;27;20028;-56
2023/12/09 01:16:27;;;;;;;1.52;1.20;;;;;;;21.05;32.73;100138.66;4589622;27;20083;-56
2023/12/09 01:18:37;;;;;;;1.58;1.30;;;;;;;21.05;33.21;100141.50;4586374;27;20040;-54
2023/12/09 01:20:47;;;;;;;1.50;1.10;;;;;;;21.04;32.78;100136.16;4587684;27;20040;-57
2023/12/09 01:22:58;;;;;;;1.60;1.30;;;;;;;21.05;33.01;100149.28;4587868;27;20040;-57
2023/12/09 01:25:08;;;;;;;1.45;1.25;;;;;;;21.04;33.21;100141.91;4571687;27;20075;-56
2023/12/09 01:27:19;;;;;;;1.10;1.00;;;;;;;21.05;33.53;100144.38;4589593;27;20040;-56
2023/12/09 01:29:30;;;;;;;1.45;1.10;;;;;;;21.04;33.13;100144.78;4590916;27;20101;-54
2023/12/09 01:31:40;;;;;;;1.83;1.10;;;;;;;21.05;33.12;100143.53;4592676;27;20044;-56
2023/12/09 01:33:51;;;;;;;1.45;1.20;;;;;;;21.03;33.13;100135.31;4589037;27;20200;-57
2023/12/09 01:36:01;;;;;;;2.03;1.30;;;;;;;21.03;33.12;100129.59;4590413;27;23212;-56
2023/12/09 01:38:11;;;;;;;1.17;1.05;;;;;;;21.03;33.10;100138.19;4592154;27;20144;-56
2023/12/09 01:40:22;;;;;;;1.35;1.05;;;;;;;21.03;33.10;100135.31;4591316;27;20059;-54
2023/12/09 01:42:32;;;;;;;1.67;1.00;;;;;;;21.03;33.20;100138.19;4590410;27;20964;-53
2023/12/09 01:44:43;;;;;;;1.45;1.10;;;;;;;21.03;33.20;100135.31;4591095;27;20040;-55
2023/12/09 01:46:53;;;;;;;1.80;1.20;;;;;;;21.02;33.25;100136.53;4589064;27;20039;-56
2023/12/09 01:49:05;;;;;;;1.08;0.90;;;;;;;21.01;33.27;100149.22;4593549;27;20040;-57
2023/12/09 01:51:16;;;;;;;1.38;0.93;;;;;;;21.01;33.13;100137.72;4592228;27;20189;-57
2023/12/09 01:53:28;;;;;;;1.00;0.80;;;;;;;21.02;32.70;100142.28;4589995;27;20511;-57
2023/12/09 01:55:40;;;;;;;1.42;0.90;;;;;;;21.02;32.86;100145.16;4589562;27;20067;-55
2023/12/09 01:57:52;;;;;;;1.20;0.80;;;;;;;21.01;33.04;100146.34;4590252;27;21000;-57
2023/12/09 02:00:03;;;;;;;1.10;0.70;;;;;;;21.02;33.16;100152.91;4590369;27;20040;-56
2023/12/09 02:02:14;;;;;;;1.02;0.77;;;;;;;21.01;32.90;100148.41;4591275;27;20036;-56
2023/12/09 02:04:26;;;;;;;3.38;1.90;;;;;;;21.01;32.79;100149.22;4589751;27;20052;-55
2023/12/09 02:06:36;;;;;;;7.75;3.97;;;;;;;20.99;33.19;100140.19;4590314;27;20121;-57
2023/12/09 02:08:47;;;;;;;6.13;3.22;;;;;;;21.02;32.73;100150.88;4590024;27;20102;-56
2023/12/09 02:11:28;;;;;;;3.35;2.60;;;;;;;21.01;33.14;100137.72;4592679;27;20041;-55
2023/12/09 02:14:02;;;;;;;1.58;1.48;;;;;;;21.01;32.91;100136.94;4589748;27;20115;-56
2023/12/09 02:16:24;;;;;;;1.27;0.88;;;;;;;21.00;32.75;100130.34;4590146;27;20035;-55
2023/12/09 02:18:35;;;;;;;1.92;1.00;;;;;;;21.00;32.77;100136.09;4590420;27;20648;-55
2023/12/09 02:20:45;;;;;;;1.10;0.73;;;;;;;21.01;32.87;100131.19;4589808;27;20088;-54
2023/12/09 02:23:10;;;;;;;1.38;0.75;;;;;;;21.00;32.75;100123.78;4588852;27;23659;-56
2023/12/09 02:25:20;;;;;;;1.20;0.82;;;;;;;21.00;32.65;100129.50;4589594;27;20105;-56
2023/12/09 02:27:38;;;;;;;0.73;0.65;;;;;;;21.00;32.88;100126.63;4589795;27;25576;-56
2023/12/09 02:30:08;;;;;;;1.25;0.82;;;;;;;20.99;32.92;100128.69;4591096;27;20040;-56
2023/12/09 02:32:20;;;;;;;1.15;0.60;;;;;;;21.00;33.16;100116.00;4588644;27;20039;-57
2023/12/09 02:34:33;;;;;;;1.15;0.60;;;;;;;20.99;32.68;100117.22;4590004;27;20044;-56
2023/12/09 02:36:45;;;;;;;0.85;0.70;;;;;;;20.99;32.82;100113.50;4587911;27;20047;-55
2023/12/09 02:38:57;;;;;;;1.15;0.70;;;;;;;20.99;32.63;100111.47;4570300;27;20064;-56
2023/12/09 02:41:08;;;;;;;1.90;0.73;;;;;;;20.99;32.69;100120.09;4589496;27;20040;-56
2023/12/09 02:43:18;;;;;;;1.55;0.80;;;;;;;21.00;33.09;100115.16;4588732;27;20070;-57
2023/12/09 02:45:29;;;;;;;1.10;0.73;;;;;;;21.00;32.96;100113.13;4589674;27;20051;-53
2023/12/09 02:47:39;;;;;;;1.40;0.70;;;;;;;20.99;33.24;100111.47;4589247;27;20100;-55
2023/12/09 02:49:50;;;;;;;1.20;0.80;;;;;;;21.00;32.96;100118.03;4589790;27;20072;-55
2023/12/09 02:52:00;;;;;;;0.88;0.70;;;;;;;20.99;32.86;100116.38;4589628;27;20042;-55
2023/12/09 02:54:10;;;;;;;1.35;1.02;;;;;;;20.98;32.93;100109.81;4589661;27;20075;-56
2023/12/09 02:56:21;;;;;;;1.40;0.77;;;;;;;20.98;33.02;100106.13;4589353;27;20050;-56
2023/12/09 02:58:31;;;;;;;0.88;0.68;;;;;;;20.98;33.46;100109.00;4589943;27;20040;-56
2023/12/09 03:00:42;;;;;;;1.15;0.63;;;;;;;20.98;33.42;100109.81;4592331;27;20431;-55
2023/12/09 03:02:52;;;;;;;1.40;0.80;;;;;;;20.99;33.63;100111.47;4589055;27;20068;-56
2023/12/09 03:05:03;;;;;;;1.25;0.80;;;;;;;20.97;33.54;100108.16;4588214;27;20089;-54
2023/12/09 03:07:13;;;;;;;1.77;0.88;;;;;;;20.97;33.63;100102.41;4589004;27;20031;-56
2023/12/09 03:09:23;;;;;;;0.68;0.68;;;;;;;20.97;33.91;100102.41;4589546;27;20109;-56
2023/12/09 03:11:34;;;;;;;1.38;0.68;;;;;;;20.97;33.94;100101.59;4588651;27;24630;-55
2023/12/09 03:13:44;;;;;;;0.88;0.75;;;;;;;20.97;34.05;100096.69;4587584;27;20036;-56
2023/12/09 03:15:54;;;;;;;0.98;0.60;;;;;;;20.96;34.17;100095.03;4589317;27;21867;-56
2023/12/09 03:18:05;;;;;;;0.93;0.70;;;;;;;20.97;34.31;100088.06;4589418;27;20039;-55
2023/12/09 03:20:17;;;;;;;0.80;0.70;;;;;;;20.97;34.59;100092.97;4590157;27;20031;-55
2023/12/09 03:22:27;;;;;;;1.00;0.80;;;;;;;20.97;34.10;100090.94;4588353;27;20949;-56
2023/12/09 03:24:37;;;;;;;0.95;0.75;;;;;;;20.96;34.27;100077.81;4589437;27;20098;-56
2023/12/09 03:26:52;;;;;;;1.27;0.90;;;;;;;20.95;34.32;100076.13;4589009;27;20036;-56
2023/12/09 03:29:02;;;;;;;0.93;0.77;;;;;;;20.96;34.26;100068.34;4589093;27;20072;-55
2023/12/09 03:31:14;;;;;;;1.15;0.70;;;;;;;20.96;33.81;100065.47;4588275;27;20050;-54
2023/12/09 03:33:24;;;;;;;1.48;0.70;;;;;;;20.96;33.64;100072.09;4589355;27;20119;-55
2023/12/09 03:35:35;;;;;;;1.25;0.80;;;;;;;20.96;33.91;100074.94;4588103;27;25691;-56
2023/12/09 03:37:45;;;;;;;0.60;0.60;;;;;;;20.93;33.39;100069.91;4588382;27;20044;-55
2023/12/09 03:39:55;;;;;;;0.80;0.60;;;;;;;20.97;33.67;100076.59;4588405;27;20036;-53
2023/12/09 03:42:06;;;;;;;1.67;0.80;;;;;;;20.95;33.50;100070.38;4587340;27;20070;-56
2023/12/09 03:44:16;;;;;;;1.08;0.70;;;;;;;20.95;33.42;100070.38;4587944;27;20047;-55
2023/12/09 03:46:26;;;;;;;1.05;0.70;;;;;;;20.95;33.15;100070.38;4589052;27;20145;-54
2023/12/09 03:48:37;;;;;;;1.05;0.70;;;;;;;20.95;33.01;100070.38;4590879;27;20575;-57
2023/12/09 03:50:47;;;;;;;0.98;0.70;;;;;;;20.96;33.07;100062.59;4587323;27;21558;-57
2023/12/09 03:52:58;;;;;;;2.17;1.00;;;;;;;20.95;33.03;100056.03;4587188;27;25935;-53
2023/12/09 03:55:09;;;;;;;1.45;0.80;;;;;;;20.96;33.02;100059.75;4588069;27;22987;-56
2023/12/09 03:57:19;;;;;;;1.33;0.80;;;;;;;20.95;33.19;100053.16;4588479;27;20791;-55
2023/12/09 03:59:30;;;;;;;1.30;0.80;;;;;;;20.96;33.55;100059.75;4590803;27;20044;-57
2023/12/09 04:01:50;;;;;;;1.23;0.80;;;;;;;20.93;33.33;100044.09;4587591;27;20026;-55
2023/12/09 04:04:00;;;;;;;1.15;0.70;;;;;;;20.95;33.11;100053.16;4587563;27;20039;-54
2023/12/09 04:06:10;;;;;;;1.40;1.00;;;;;;;20.94;32.44;100045.78;4588896;27;28130;-57
2023/12/09 04:08:21;;;;;;;1.58;0.80;;;;;;;20.94;32.47;100050.69;4590014;27;20541;-53
2023/12/09 04:10:31;;;;;;;1.15;0.85;;;;;;;20.95;32.58;100047.44;4589775;27;20043;-55
2023/12/09 04:12:42;;;;;;;1.00;0.80;;;;;;;20.95;32.66;100044.56;4588656;27;26969;-54
2023/12/09 04:14:52;;;;;;;1.63;0.90;;;;;;;20.94;32.86;100045.78;4588075;27;20040;-56
2023/12/09 04:17:03;;;;;;;1.45;0.73;;;;;;;20.95;32.74;100041.69;4587788;27;20105;-57
2023/12/09 04:19:13;;;;;;;1.13;0.60;;;;;;;20.94;32.87;100028.56;4588122;27;20039;-56
2023/12/09 04:21:23;;;;;;;1.20;0.80;;;;;;;20.94;32.37;100031.44;4589095;27;20040;-55
2023/12/09 04:23:34;;;;;;;1.10;0.70;;;;;;;20.94;32.57;100033.47;4585235;27;22005;-55
2023/12/09 04:25:45;;;;;;;1.08;0.70;;;;;;;20.93;32.10;100031.81;4589520;27;20488;-56
2023/12/09 04:27:55;;;;;;;1.00;0.65;;;;;;;20.94;32.39;100037.19;4587197;27;20032;-56
2023/12/09 04:30:06;;;;;;;1.52;0.80;;;;;;;20.95;32.17;100044.56;4586549;27;20035;-55
2023/12/09 04:32:16;;;;;;;1.05;0.70;;;;;;;20.92;31.99;100036.72;4588273;27;20101;-56
2023/12/09 04:34:27;;;;;;;1.63;0.88;;;;;;;20.93;31.89;100031.81;4589152;27;20407;-54
2023/12/09 04:36:37;;;;;;;1.33;0.60;;;;;;;20.93;31.64;100032.63;4589122;27;20554;-55
2023/12/09 04:38:48;;;;;;;1.33;0.70;;;;;;;20.93;31.42;100026.88;4587284;27;20074;-56
2023/12/09 04:40:58;;;;;;;1.70;0.73;;;;;;;20.94;31.92;100030.59;4587133;27;20043;-55
2023/12/09 04:43:08;;;;;;;1.05;0.77;;;;;;;20.93;31.72;100035.50;4587991;27;20050;-55
2023/12/09 04:45:19;;;;;;;2.17;0.70;;;;;;;20.93;31.67;100038.38;4586958;27;23311;-56
2023/12/09 04:47:29;;;;;;;1.20;0.80;;;;;;;20.94;31.30;100034.31;4586878;27;20039;-57
2023/12/09 04:49:40;;;;;;;0.90;0.68;;;;;;;20.94;31.38;100042.91;4589097;27;20047;-52
2023/12/09 04:51:50;;;;;;;1.60;0.65;;;;;;;20.94;31.02;100040.03;4589673;27;20034;-57
2023/12/09 04:54:00;;;;;;;0.70;0.60;;;;;;;20.93;31.28;100041.22;4588792;27;20048;-55
2023/12/09 04:56:11;;;;;;;1.02;0.70;;;;;;;20.94;31.30;100039.19;4585874;27;20050;-56
2023/12/09 04:58:21;;;;;;;0.75;0.73;;;;;;;20.94;31.37;100042.91;4589438;27;20025;-56
2023/12/09 05:00:32;;;;;;;1.73;0.70;;;;;;;20.92;31.30;100039.59;4587335;27;20043;-55
2023/12/09 05:02:42;;;;;;;1.27;0.80;;;;;;;20.92;31.47;100036.72;4589414;27;20062;-53
2023/12/09 05:04:52;;;;;;;1.05;0.60;;;;;;;20.92;31.63;100030.97;4587216;27;20097;-55
2023/12/09 05:07:03;;;;;;;1.38;0.57;;;;;;;20.93;31.86;100031.81;4587575;27;20040;-56
2023/12/09 05:09:14;;;;;;;1.02;0.70;;;;;;;20.92;32.21;100030.16;4587642;27;20028;-57
2023/12/09 05:11:24;;;;;;;0.88;0.60;;;;;;;20.91;32.29;100040.81;4589261;27;20052;-56
2023/12/09 05:13:35;;;;;;;1.00;0.88;;;;;;;20.91;32.14;100040.81;4587922;27;20464;-56
2023/12/09 05:15:45;;;;;;;0.80;0.60;;;;;;;20.93;31.94;100038.38;4587213;27;20089;-55
2023/12/09 05:17:56;;;;;;;1.02;0.70;;;;;;;20.91;32.03;100023.59;4586220;27;20039;-55
2023/12/09 05:20:09;;;;;;;1.00;0.70;;;;;;;20.92;31.85;100027.28;4588504;27;20031;-55
2023/12/09 05:22:21;;;;;;;1.40;0.70;;;;;;;20.93;32.50;100020.34;4588138;27;20023;-57
2023/12/09 05:24:32;;;;;;;1.58;0.75;;;;;;;20.91;32.27;100017.03;4588079;27;20978;-56
2023/12/09 05:26:42;;;;;;;0.90;0.60;;;;;;;20.91;32.07;100023.59;4587451;27;20108;-55
2023/12/09 05:28:54;;;;;;;1.02;0.73;;;;;;;20.91;32.30;100020.72;4586870;27;20172;-57
2023/12/09 05:31:04;;;;;;;1.60;0.70;;;;;;;20.91;32.04;100017.84;4586816;27;20031;-56
2023/12/09 05:33:15;;;;;;;1.92;0.80;;;;;;;20.91;31.79;100012.13;4586292;27;20682;-57
2023/12/09 05:35:25;;;;;;;1.58;0.93;;;;;;;20.91;32.02;100017.84;4588373;27;20391;-56
2023/12/09 05:37:36;;;;;;;1.38;0.63;;;;;;;20.90;31.81;100007.56;4587500;27;20590;-57
2023/12/09 05:39:46;;;;;;;0.65;0.60;;;;;;;20.91;31.66;100000.66;4587704;27;20051;-56
2023/12/09 05:41:57;;;;;;;0.98;0.60;;;;;;;20.90;31.73;100003.91;4587082;27;20111;-56
2023/12/09 05:44:07;;;;;;;1.42;0.80;;;;;;;20.90;31.88;99998.97;4587315;27;20039;-54
2023/12/09 05:46:19;;;;;;;1.23;0.77;;;;;;;20.90;32.20;99998.16;4586504;27;20098;-56
2023/12/09 05:48:32;;;;;;;1.27;0.80;;;;;;;20.90;31.77;99993.22;4587391;27;20036;-54
2023/12/09 05:50:43;;;;;;;1.30;0.70;;;;;;;20.90;32.00;99993.22;4586835;27;21051;-57
2023/12/09 05:52:54;;;;;;;1.35;0.70;;;;;;;20.91;32.03;99989.19;4588175;27;20039;-56
2023/12/09 05:55:05;;;;;;;0.85;0.70;;;;;;;20.90;31.95;99992.44;4586486;27;20419;-56
2023/12/09 05:57:15;;;;;;;1.48;0.80;;;;;;;20.90;32.04;100001.84;4571378;27;20040;-53
2023/12/09 05:59:25;;;;;;;1.75;0.90;;;;;;;20.90;31.72;99998.97;4586130;27;20127;-55
2023/12/09 06:01:36;;;;;;;1.45;0.80;;;;;;;20.91;31.73;99999.81;4571141;27;20135;-55
2023/12/09 06:03:46;;;;;;;0.98;0.70;;;;;;;20.90;31.95;99998.16;4572014;27;20055;-56
2023/12/09 06:05:57;;;;;;;2.17;1.27;;;;;;;20.90;31.89;99998.16;4585522;27;20040;-56
2023/12/09 06:08:08;;;;;;;2.53;1.67;;;;;;;20.89;31.76;100008.81;4585660;27;20115;-55
2023/12/09 06:10:18;;;;;;;1.98;1.00;;;;;;;20.91;31.79;100005.53;4586291;27;20043;-55
2023/12/09 06:12:28;;;;;;;6.43;4.00;;;;;;;20.90;31.91;100004.72;4587867;27;20039;-56
2023/12/09 06:14:39;;;;;;;5.18;3.50;;;;;;;20.88;31.86;100001.41;4592563;27;20031;-57
2023/12/09 06:16:49;;;;;;;2.78;2.00;;;;;;;20.89;31.89;99997.31;4589771;27;20036;-56
2023/12/09 06:19:00;;;;;;;2.90;1.58;;;;;;;20.88;31.49;100004.28;4591387;27;20048;-56
2023/12/09 06:21:22;;;;;;;1.70;1.17;;;;;;;20.89;31.38;100002.22;4593134;27;20399;-55
2023/12/09 06:23:32;;;;;;;1.67;0.90;;;;;;;20.88;31.34;99995.69;4590370;27;20035;-54
2023/12/09 06:25:42;;;;;;;1.60;0.70;;;;;;;20.89;30.96;99990.75;4591380;27;20122;-56
2023/12/09 06:27:53;;;;;;;1.77;0.80;;;;;;;20.89;31.10;99996.50;4588766;27;20123;-56
2023/12/09 06:30:05;;;;;;;1.25;0.80;;;;;;;20.89;31.41;99990.75;4590007;27;20346;-57
2023/12/09 06:32:15;;;;;;;1.08;0.70;;;;;;;20.88;31.75;99987.06;4588361;27;20043;-56
2023/12/09 06:34:26;;;;;;;0.90;0.60;;;;;;;20.88;31.27;99984.22;4590111;27;20434;-56
2023/12/09 06:36:36;;;;;;;1.58;0.80;;;;;;;20.88;31.09;99984.22;4589131;27;20090;-57
2023/12/09 06:38:47;;;;;;;1.02;0.60;;;;;;;20.89;31.42;99980.13;4590329;27;20059;-53
2023/12/09 06:40:57;;;;;;;1.00;0.70;;;;;;;20.88;31.21;99969.03;4588523;27;20309;-57
2023/12/09 06:43:07;;;;;;;1.02;0.85;;;;;;;20.88;31.19;99972.72;4589468;27;20044;-54
2023/12/09 06:45:18;;;;;;;1.30;0.80;;;;;;;20.87;31.04;99968.19;4587962;27;29266;-56
2023/12/09 06:47:28;;;;;;;1.33;0.77;;;;;;;20.89;30.86;99968.63;4590801;27;20483;-57
2023/12/09 06:49:38;;;;;;;1.35;0.70;;;;;;;20.88;30.72;99969.88;4591336;27;21050;-56
2023/12/09 06:51:49;;;;;;;1.65;0.80;;;;;;;20.88;31.01;99981.34;4591561;27;20035;-57
2023/12/09 06:54:00;;;;;;;1.83;1.00;;;;;;;20.89;30.92;99964.94;4590323;27;20070;-55
2023/12/09 06:56:21;;;;;;;0.90;0.70;;;;;;;20.88;30.92;99966.16;4589801;27;20528;-55
2023/12/09 06:58:31;;;;;;;1.13;0.80;;;;;;;20.87;30.90;99971.06;4590305;27;20036;-57
2023/12/09 07:00:42;;;;;;;2.00;0.75;;;;;;;20.87;30.98;99967.38;4591091;27;20020;-57
2023/12/09 07:02:52;;;;;;;1.20;0.70;;;;;;;20.89;30.76;99973.53;4588725;27;20075;-56
2023/12/09 07:05:03;;;;;;;1.20;0.80;;;;;;;20.88;30.82;99969.88;4587617;27;20204;-56
2023/12/09 07:07:14;;;;;;;1.13;0.63;;;;;;;20.88;30.55;99963.28;4589780;27;20043;-55
2023/12/09 07:09:24;;;;;;;1.13;0.80;;;;;;;20.87;30.85;99961.66;4589897;27;20380;-57
2023/12/09 07:11:35;;;;;;;2.17;1.05;;;;;;;20.88;30.84;99957.56;4588821;27;20865;-55
2023/12/09 07:13:45;;;;;;;2.28;1.80;;;;;;;20.86;30.85;99959.97;4588904;27;20036;-55
2023/12/09 07:15:56;;;;;;;0.70;0.70;;;;;;;20.87;30.99;99953.03;4578271;27;20067;-55
2023/12/09 07:18:06;;;;;;;0.90;0.75;;;;;;;20.88;30.69;99961.25;4572397;27;20040;-55
2023/12/09 07:20:16;;;;;;;0.88;0.70;;;;;;;20.89;30.74;99968.63;4591614;27;20094;-55
2023/12/09 07:22:27;;;;;;;1.63;0.80;;;;;;;20.91;31.15;99968.25;4589596;27;20468;-55
2023/12/09 07:24:37;;;;;;;1.38;0.80;;;;;;;20.92;30.88;99962.13;4589458;27;20054;-56
2023/12/09 07:26:47;;;;;;;0.88;0.68;;;;;;;20.93;31.05;99963.78;4590168;27;20543;-56
2023/12/09 07:28:58;;;;;;;1.23;0.60;;;;;;;20.93;30.52;99960.91;4588600;27;25915;-56
2023/12/09 07:31:08;;;;;;;2.05;0.90;;;;;;;20.95;30.56;99958.50;4589246;27;20048;-55
2023/12/09 07:33:19;;;;;;;0.90;0.70;;;;;;;20.96;30.79;99965.06;4588625;27;20036;-56
2023/12/09 07:35:29;;;;;;;1.85;0.93;;;;;;;20.97;30.95;99963.88;4590643;27;20522;-56
2023/12/09 07:37:39;;;;;;;0.88;0.60;;;;;;;20.98;30.97;99971.28;4579410;27;26672;-55
2023/12/09 07:39:50;;;;;;;1.77;0.77;;;;;;;20.98;30.80;99963.47;4590339;27;20066;-55
2023/12/09 07:42:00;;;;;;;1.27;0.93;;;;;;;20.98;31.24;99963.47;4590954;27;20421;-56
2023/12/09 07:44:11;;;;;;;1.13;0.90;;;;;;;20.99;31.04;99962.28;4589899;27;20064;-56
2023/12/09 07:46:21;;;;;;;1.58;0.70;;;;;;;20.99;31.13;99956.56;4590008;27;20469;-52
2023/12/09 07:48:31;;;;;;;0.85;0.70;;;;;;;21.00;31.08;99952.47;4591062;27;20764;-57
2023/12/09 07:50:42;;;;;;;1.40;0.88;;;;;;;21.00;31.10;99948.75;4571815;27;20918;-55
2023/12/09 07:52:52;;;;;;;0.75;0.60;;;;;;;21.01;31.08;99953.28;4587994;27;20063;-54
2023/12/09 07:55:03;;;;;;;0.98;0.60;;;;;;;21.00;31.19;99946.72;4589186;27;20484;-52
2023/12/09 07:57:14;;;;;;;0.77;0.77;;;;;;;21.02;30.61;99943.47;4587288;27;21173;-53
2023/12/09 07:59:24;;;;;;;0.60;0.55;;;;;;;21.01;30.82;99938.94;4589788;27;20036;-53
2023/12/09 08:01:35;;;;;;;1.45;0.90;;;;;;;21.02;31.08;99944.31;4588891;27;27361;-55
2023/12/09 08:03:45;;;;;;;1.15;0.90;;;;;;;21.03;30.78;99934.47;4591826;27;20051;-55
2023/12/09 08:05:56;;;;;;;1.02;0.90;;;;;;;21.01;31.17;99934.03;4588077;27;20111;-53
2023/12/09 08:08:06;;;;;;;1.38;0.82;;;;;;;21.02;31.19;99927.09;4586817;27;20101;-52
2023/12/09 08:10:17;;;;;;;1.30;0.80;;;;;;;21.02;31.15;99920.50;4589878;27;20071;-55
2023/12/09 08:12:28;;;;;;;1.15;0.88;;;;;;;21.03;31.35;99919.28;4578811;27;20142;-56
2023/12/09 08:14:38;;;;;;;1.10;0.90;;;;;;;21.04;31.10;99915.22;4590490;27;20039;-55
2023/12/09 08:16:49;;;;;;;0.95;0.70;;;;;;;21.01;31.39;99910.25;4572221;27;20044;-55
2023/12/09 08:18:59;;;;;;;1.40;0.70;;;;;;;21.02;31.31;99907.00;4587871;27;20059;-55
2023/12/09 08:21:10;;;;;;;1.77;0.90;;;;;;;21.01;31.34;99896.72;4588307;27;20046;-54
2023/12/09 08:23:20;;;;;;;1.35;0.70;;;;;;;21.01;31.71;99896.72;4589473;27;20123;-56
2023/12/09 08:25:30;;;;;;;1.85;1.00;;;;;;;21.02;31.66;99898.41;4587554;27;20512;-53
2023/12/09 08:27:41;;;;;;;1.10;0.70;;;;;;;21.01;32.03;99890.19;4588656;27;20102;-55
2023/12/09 08:29:52;;;;;;;0.77;0.68;;;;;;;20.99;31.71;99887.69;4589098;27;20054;-54
2023/12/09 08:32:03;;;;;;;1.15;0.75;;;;;;;21.01;32.06;99881.56;4571454;27;20036;-54
2023/12/09 08:34:14;;;;;;;0.82;0.70;;;;;;;21.01;31.87;99878.69;4587400;27;20043;-53
2023/12/09 08:36:24;;;;;;;1.48;0.65;;;;;;;21.01;32.24;99885.25;4570484;27;20032;-55
2023/12/09 08:38:35;;;;;;;0.70;0.60;;;;;;;21.01;32.43;99890.19;4590370;27;20483;-56
2023/12/09 08:40:45;;;;;;;0.75;0.55;;;;;;;21.01;32.46;99887.31;4587358;27;20657;-55
2023/12/09 08:42:55;;;;;;;0.82;0.80;;;;;;;21.01;32.63;99882.38;4587495;27;30579;-55
2023/12/09 08:45:09;;;;;;;0.85;0.60;;;;;;;21.01;32.41;99862.28;4590503;27;20097;-56
2023/12/09 08:47:19;;;;;;;0.50;0.50;;;;;;;21.01;32.59;99856.56;4587233;27;20066;-53
2023/12/09 08:49:29;;;;;;;1.15;0.70;;;;;;;21.00;32.74;99860.66;4587501;27;20078;-56
2023/12/09 08:51:44;;;;;;;0.93;0.50;;;;;;;20.99;32.46;99859.00;4587513;27;20037;-55
2023/12/09 08:53:55;;;;;;;0.68;0.60;;;;;;;21.01;32.39;99855.75;4588631;27;20068;-56
2023/12/09 08:56:07;;;;;;;0.95;0.50;;;;;;;21.00;32.34;99852.03;4590271;27;20052;-55
2023/12/09 08:58:17;;;;;;;0.60;0.55;;;;;;;21.01;32.60;99859.44;4589098;27;20736;-54
2023/12/09 09:00:27;;;;;;;0.73;0.60;;;;;;;21.03;32.70;99856.16;4588829;27;20039;-56
2023/12/09 09:02:38;;;;;;;0.98;0.60;;;;;;;21.03;32.79;99853.31;4587842;27;20023;-57
2023/12/09 09:04:49;;;;;;;1.23;0.50;;;;;;;21.01;32.58;99844.28;4570183;27;20040;-55
2023/12/09 09:06:59;;;;;;;1.05;0.50;;;;;;;21.02;32.71;99851.66;4587240;27;20036;-56
2023/12/09 09:09:11;;;;;;;0.30;0.30;;;;;;;21.03;32.66;99859.03;4588350;27;20478;-56
2023/12/09 09:11:21;;;;;;;1.27;0.60;;;;;;;21.06;32.79;99859.09;4586947;27;20024;-56
2023/12/09 09:13:32;;;;;;;0.95;0.50;;;;;;;21.08;32.39;99859.53;4571668;27;20044;-56
2023/12/09 09:15:42;;;;;;;0.80;0.65;;;;;;;21.10;32.30;99851.38;4587539;27;20094;-57
2023/12/09 09:17:53;;;;;;;0.60;0.60;;;;;;;21.12;32.27;99851.00;4572278;27;20040;-51
2023/12/09 09:20:04;;;;;;;0.75;0.60;;;;;;;21.09;32.46;99846.84;4588064;27;20123;-54
2023/12/09 09:22:15;;;;;;;0.73;0.47;;;;;;;21.08;32.32;99856.66;4589911;27;21230;-54
2023/12/09 09:24:25;;;;;;;0.60;0.50;;;;;;;21.08;32.49;99845.19;4590536;27;20032;-57
2023/12/09 09:26:36;;;;;;;1.00;0.60;;;;;;;21.05;32.73;99840.25;4588506;27;20036;-61
2023/12/09 09:28:46;;;;;;;1.15;0.60;;;;;;;21.05;32.69;99834.50;4588964;27;20043;-55
2023/12/09 09:30:57;;;;;;;0.75;0.60;;;;;;;21.07;32.65;99843.56;4588294;27;20035;-55
2023/12/09 09:33:07;;;;;;;0.70;0.40;;;;;;;21.05;32.67;99839.41;4588128;27;20139;-55
2023/12/09 09:35:18;;;;;;;1.13;0.57;;;;;;;21.04;32.81;99843.50;4589082;27;20075;-57
2023/12/09 09:37:29;;;;;;;0.70;0.52;;;;;;;21.03;32.31;99834.06;4588742;27;20050;-55
2023/12/09 09:39:39;;;;;;;0.60;0.50;;;;;;;21.03;32.50;99836.09;4576767;27;20036;-56
2023/12/09 09:42:23;;;;;;;0.93;0.40;;;;;;;21.03;32.95;99833.22;4586491;27;20409;-57
2023/12/09 09:44:42;;;;;;;1.30;0.60;;;;;;;21.02;32.55;99823.81;4588587;27;20039;-57
2023/12/09 09:46:57;;;;;;;1.33;0.50;;;;;;;21.01;32.69;99819.25;4586386;27;20038;-55
2023/12/09 09:49:09;;;;;;;0.43;0.38;;;;;;;21.02;32.88;99815.19;4590593;27;20036;-55
2023/12/09 09:51:26;;;;;;;0.57;0.40;;;;;;;21.01;32.60;99804.91;4590315;27;20075;-56
2023/12/09 09:53:45;;;;;;;0.73;0.50;;;;;;;21.01;33.04;99799.19;4592320;27;20089;-55
2023/12/09 09:55:56;;;;;;;0.65;0.45;;;;;;;21.02;33.18;99795.13;4590669;27;20136;-55
2023/12/09 09:58:07;;;;;;;1.23;0.50;;;;;;;21.01;32.99;99786.91;4593531;27;21245;-57
2023/12/09 10:00:19;;;;;;;0.40;0.40;;;;;;;21.00;32.76;99774.59;4590383;27;20068;-55
2023/12/09 10:02:32;;;;;;;0.88;0.55;;;;;;;21.00;32.83;99774.59;4590600;27;20102;-57
2023/12/09 10:04:42;;;;;;;1.02;0.50;;;;;;;21.01;33.21;99764.75;4591849;27;20123;-54
2023/12/09 10:06:54;;;;;;;0.73;0.40;;;;;;;21.03;32.79;99767.22;4574488;27;20033;-56
2023/12/09 10:09:05;;;;;;;0.95;0.50;;;;;;;21.00;32.79;99745.91;4589458;27;20040;-56
2023/12/09 10:11:15;;;;;;;2.15;0.60;;;;;;;21.02;32.73;99748.38;4589984;27;20074;-56
2023/12/09 10:13:26;;;;;;;0.82;0.40;;;;;;;21.01;32.57;99736.06;4589235;27;20046;-56